sensor_id;sensor_type;location;lat;lon;timestamp;P1;durP1;ratioP1;P2;durP2;ratioP2
20653;SDS011;21083;50.898;4.902;2023-02-26T00:00:12;14.68;;;4.20;;
20653;SDS011;21083;50.898;4.902;2023-02-26T00:02:40;13.23;;;3.97;;
20653;SDS011;21083;50.898;4.902;2023-02-26T00:05:09;16.95;;;3.92;;
20653;SDS011;21083;50.898;4.902;2023-02-26T00:07:36;12.25;;;4.40;;
20653;SDS011;21083;50.898;4.902;2023-02-26T00:10:03;13.93;;;3.97;;
20653;SDS011;21083;50.898;4.902;2023-02-26T00:12:33;16.65;;;4.47;;
20653;SDS011;21083;50.898;4.902;2023-02-26T00:15:01;23.08;;;5.05;;
20653;SDS011;21083;50.898;4.902;2023-02-26T00:17:31;16.92;;;4.47;;
20653;SDS011;21083;50.898;4.902;2023-02-26T00:20:05;19.55;;;4.38;;
20653;SDS011;21083;50.898;4.902;2023-02-26T00:22:34;13.80;;;4.82;;
20653;SDS011;21083;50.898;4.902;2023-02-26T00:25:01;12.82;;;3.80;;
20653;SDS011;21083;50.898;4.902;2023-02-26T00:27:28;17.83;;;4.43;;
20653;SDS011;21083;50.898;4.902;2023-02-26T00:29:57;18.17;;;4.70;;
20653;SDS011;21083;50.898;4.902;2023-02-26T00:32:24;14.48;;;4.82;;
20653;SDS011;21083;50.898;4.902;2023-02-26T00:34:51;16.27;;;4.43;;
20653;SDS011;21083;50.898;4.902;2023-02-26T00:37:26;18.85;;;4.22;;
20653;SDS011;21083;50.898;4.902;2023-02-26T00:40:02;13.30;;;4.05;;
20653;SDS011;21083;50.898;4.902;2023-02-26T00:42:40;9.60;;;3.50;;
20653;SDS011;21083;50.898;4.902;2023-02-26T00:45:09;13.98;;;3.83;;
20653;SDS011;21083;50.898;4.902;2023-02-26T00:47:39;12.55;;;3.85;;
20653;SDS011;21083;50.898;4.902;2023-02-26T00:50:15;26.13;;;4.30;;
20653;SDS011;21083;50.898;4.902;2023-02-26T00:52:45;15.25;;;3.92;;
20653;SDS011;21083;50.898;4.902;2023-02-26T00:55:19;11.30;;;3.72;;
20653;SDS011;21083;50.898;4.902;2023-02-26T00:57:46;11.00;;;3.63;;
20653;SDS011;21083;50.898;4.902;2023-02-26T01:02:43;18.05;;;4.05;;
20653;SDS011;21083;50.898;4.902;2023-02-26T01:05:11;15.85;;;4.15;;
20653;SDS011;21083;50.898;4.902;2023-02-26T01:07:41;12.70;;;3.70;;
20653;SDS011;21083;50.898;4.902;2023-02-26T01:10:10;12.75;;;3.60;;
20653;SDS011;21083;50.898;4.902;2023-02-26T01:12:39;18.25;;;4.82;;
20653;SDS011;21083;50.898;4.902;2023-02-26T01:15:07;20.73;;;4.45;;
20653;SDS011;21083;50.898;4.902;2023-02-26T01:17:37;20.20;;;7.18;;
20653;SDS011;21083;50.898;4.902;2023-02-26T01:20:10;22.95;;;4.63;;
20653;SDS011;21083;50.898;4.902;2023-02-26T01:22:43;18.33;;;3.92;;
20653;SDS011;21083;50.898;4.902;2023-02-26T01:25:17;18.33;;;4.60;;
20653;SDS011;21083;50.898;4.902;2023-02-26T01:27:48;16.42;;;4.03;;
20653;SDS011;21083;50.898;4.902;2023-02-26T01:30:16;17.88;;;4.47;;
20653;SDS011;21083;50.898;4.902;2023-02-26T01:32:45;11.32;;;3.75;;
20653;SDS011;21083;50.898;4.902;2023-02-26T01:35:20;16.63;;;4.45;;
20653;SDS011;21083;50.898;4.902;2023-02-26T01:37:58;18.73;;;4.22;;
20653;SDS011;21083;50.898;4.902;2023-02-26T01:43:33;14.68;;;4.30;;
20653;SDS011;21083;50.898;4.902;2023-02-26T01:46:05;14.57;;;4.47;;
20653;SDS011;21083;50.898;4.902;2023-02-26T01:48:42;17.70;;;4.05;;
20653;SDS011;21083;50.898;4.902;2023-02-26T01:51:14;14.23;;;4.38;;
20653;SDS011;21083;50.898;4.902;2023-02-26T01:53:41;19.70;;;4.97;;
20653;SDS011;21083;50.898;4.902;2023-02-26T01:56:10;12.60;;;3.78;;
20653;SDS011;21083;50.898;4.902;2023-02-26T01:58:41;15.00;;;3.83;;
20653;SDS011;21083;50.898;4.902;2023-02-26T02:01:10;14.10;;;4.30;;
20653;SDS011;21083;50.898;4.902;2023-02-26T02:03:37;19.60;;;4.32;;
20653;SDS011;21083;50.898;4.902;2023-02-26T02:06:09;19.92;;;3.90;;
20653;SDS011;21083;50.898;4.902;2023-02-26T02:08:40;17.73;;;5.07;;
20653;SDS011;21083;50.898;4.902;2023-02-26T02:11:08;13.77;;;4.40;;
20653;SDS011;21083;50.898;4.902;2023-02-26T02:13:40;14.85;;;4.18;;
20653;SDS011;21083;50.898;4.902;2023-02-26T02:16:20;13.18;;;4.22;;
20653;SDS011;21083;50.898;4.902;2023-02-26T02:18:57;14.95;;;4.28;;
20653;SDS011;21083;50.898;4.902;2023-02-26T02:21:40;13.85;;;4.22;;
20653;SDS011;21083;50.898;4.902;2023-02-26T02:24:21;17.95;;;4.68;;
20653;SDS011;21083;50.898;4.902;2023-02-26T02:27:05;15.55;;;4.32;;
20653;SDS011;21083;50.898;4.902;2023-02-26T02:29:47;11.82;;;3.88;;
20653;SDS011;21083;50.898;4.902;2023-02-26T02:32:30;14.88;;;3.80;;
20653;SDS011;21083;50.898;4.902;2023-02-26T02:35:03;17.83;;;4.07;;
20653;SDS011;21083;50.898;4.902;2023-02-26T02:37:37;15.75;;;4.00;;
20653;SDS011;21083;50.898;4.902;2023-02-26T02:40:10;18.20;;;4.85;;
20653;SDS011;21083;50.898;4.902;2023-02-26T02:42:41;19.02;;;6.35;;
20653;SDS011;21083;50.898;4.902;2023-02-26T02:45:13;19.50;;;3.63;;
20653;SDS011;21083;50.898;4.902;2023-02-26T02:47:47;17.13;;;3.95;;
20653;SDS011;21083;50.898;4.902;2023-02-26T02:50:19;9.07;;;3.67;;
20653;SDS011;21083;50.898;4.902;2023-02-26T02:52:51;16.05;;;3.95;;
20653;SDS011;21083;50.898;4.902;2023-02-26T02:55:23;15.05;;;3.63;;
20653;SDS011;21083;50.898;4.902;2023-02-26T02:57:54;11.23;;;3.55;;
20653;SDS011;21083;50.898;4.902;2023-02-26T03:00:26;15.32;;;3.55;;
20653;SDS011;21083;50.898;4.902;2023-02-26T03:02:58;17.55;;;4.28;;
20653;SDS011;21083;50.898;4.902;2023-02-26T03:05:31;13.52;;;3.22;;
20653;SDS011;21083;50.898;4.902;2023-02-26T03:07:59;11.82;;;3.70;;
20653;SDS011;21083;50.898;4.902;2023-02-26T03:10:30;15.20;;;3.90;;
20653;SDS011;21083;50.898;4.902;2023-02-26T03:12:57;12.80;;;3.40;;
20653;SDS011;21083;50.898;4.902;2023-02-26T03:15:26;13.20;;;3.80;;
20653;SDS011;21083;50.898;4.902;2023-02-26T03:18:08;16.70;;;3.50;;
20653;SDS011;21083;50.898;4.902;2023-02-26T03:20:51;15.77;;;3.03;;
20653;SDS011;21083;50.898;4.902;2023-02-26T03:23:29;18.00;;;3.75;;
20653;SDS011;21083;50.898;4.902;2023-02-26T03:26:00;16.67;;;2.92;;
20653;SDS011;21083;50.898;4.902;2023-02-26T03:28:37;12.82;;;2.95;;
20653;SDS011;21083;50.898;4.902;2023-02-26T03:31:10;11.77;;;3.13;;
20653;SDS011;21083;50.898;4.902;2023-02-26T03:33:46;10.13;;;3.05;;
20653;SDS011;21083;50.898;4.902;2023-02-26T03:36:20;9.25;;;2.75;;
20653;SDS011;21083;50.898;4.902;2023-02-26T03:38:50;13.82;;;3.45;;
20653;SDS011;21083;50.898;4.902;2023-02-26T03:41:22;10.77;;;2.70;;
20653;SDS011;21083;50.898;4.902;2023-02-26T03:43:55;14.55;;;3.28;;
20653;SDS011;21083;50.898;4.902;2023-02-26T03:46:25;8.93;;;2.90;;
20653;SDS011;21083;50.898;4.902;2023-02-26T03:48:57;14.13;;;3.03;;
20653;SDS011;21083;50.898;4.902;2023-02-26T03:51:29;12.95;;;2.90;;
20653;SDS011;21083;50.898;4.902;2023-02-26T03:53:59;17.50;;;2.80;;
20653;SDS011;21083;50.898;4.902;2023-02-26T03:56:31;12.57;;;2.45;;
20653;SDS011;21083;50.898;4.902;2023-02-26T03:59:02;9.82;;;3.08;;
20653;SDS011;21083;50.898;4.902;2023-02-26T04:01:30;18.15;;;2.55;;
20653;SDS011;21083;50.898;4.902;2023-02-26T04:04:03;12.88;;;3.70;;
20653;SDS011;21083;50.898;4.902;2023-02-26T04:06:34;10.85;;;2.97;;
20653;SDS011;21083;50.898;4.902;2023-02-26T04:09:02;9.15;;;2.75;;
20653;SDS011;21083;50.898;4.902;2023-02-26T04:11:29;11.73;;;2.70;;
20653;SDS011;21083;50.898;4.902;2023-02-26T04:13:57;13.20;;;3.08;;
20653;SDS011;21083;50.898;4.902;2023-02-26T04:16:24;14.32;;;2.92;;
20653;SDS011;21083;50.898;4.902;2023-02-26T04:18:51;11.68;;;2.70;;
20653;SDS011;21083;50.898;4.902;2023-02-26T04:21:20;14.27;;;2.88;;
20653;SDS011;21083;50.898;4.902;2023-02-26T04:23:48;15.18;;;2.97;;
20653;SDS011;21083;50.898;4.902;2023-02-26T04:26:14;13.88;;;3.28;;
20653;SDS011;21083;50.898;4.902;2023-02-26T04:28:41;11.00;;;2.65;;
20653;SDS011;21083;50.898;4.902;2023-02-26T04:31:08;14.57;;;2.90;;
20653;SDS011;21083;50.898;4.902;2023-02-26T04:33:35;11.55;;;3.20;;
20653;SDS011;21083;50.898;4.902;2023-02-26T04:36:02;10.07;;;3.20;;
20653;SDS011;21083;50.898;4.902;2023-02-26T04:38:31;13.18;;;3.50;;
20653;SDS011;21083;50.898;4.902;2023-02-26T04:40:58;12.45;;;3.58;;
20653;SDS011;21083;50.898;4.902;2023-02-26T04:43:25;14.88;;;3.55;;
20653;SDS011;21083;50.898;4.902;2023-02-26T04:45:52;18.65;;;3.25;;
20653;SDS011;21083;50.898;4.902;2023-02-26T04:48:19;13.68;;;2.83;;
20653;SDS011;21083;50.898;4.902;2023-02-26T04:50:46;14.18;;;2.90;;
20653;SDS011;21083;50.898;4.902;2023-02-26T04:53:13;11.13;;;2.80;;
20653;SDS011;21083;50.898;4.902;2023-02-26T04:55:41;13.38;;;3.20;;
20653;SDS011;21083;50.898;4.902;2023-02-26T04:58:08;13.95;;;2.60;;
20653;SDS011;21083;50.898;4.902;2023-02-26T05:00:35;10.10;;;2.80;;
20653;SDS011;21083;50.898;4.902;2023-02-26T05:03:02;8.95;;;2.75;;
20653;SDS011;21083;50.898;4.902;2023-02-26T05:05:29;7.00;;;2.03;;
20653;SDS011;21083;50.898;4.902;2023-02-26T05:07:56;14.00;;;2.42;;
20653;SDS011;21083;50.898;4.902;2023-02-26T05:10:24;11.20;;;2.60;;
20653;SDS011;21083;50.898;4.902;2023-02-26T05:12:52;8.05;;;1.88;;
20653;SDS011;21083;50.898;4.902;2023-02-26T05:15:19;12.70;;;2.28;;
20653;SDS011;21083;50.898;4.902;2023-02-26T05:17:46;8.35;;;2.08;;
20653;SDS011;21083;50.898;4.902;2023-02-26T05:20:12;8.48;;;2.63;;
20653;SDS011;21083;50.898;4.902;2023-02-26T05:22:40;7.90;;;2.08;;
20653;SDS011;21083;50.898;4.902;2023-02-26T05:25:08;10.32;;;2.33;;
20653;SDS011;21083;50.898;4.902;2023-02-26T05:27:37;4.85;;;1.70;;
20653;SDS011;21083;50.898;4.902;2023-02-26T05:30:08;7.13;;;2.22;;
20653;SDS011;21083;50.898;4.902;2023-02-26T05:32:37;4.72;;;2.40;;
20653;SDS011;21083;50.898;4.902;2023-02-26T05:35:04;15.02;;;2.25;;
20653;SDS011;21083;50.898;4.902;2023-02-26T05:37:31;7.18;;;2.00;;
20653;SDS011;21083;50.898;4.902;2023-02-26T05:39:58;7.22;;;1.80;;
20653;SDS011;21083;50.898;4.902;2023-02-26T05:42:25;12.05;;;2.22;;
20653;SDS011;21083;50.898;4.902;2023-02-26T05:44:52;7.37;;;1.80;;
20653;SDS011;21083;50.898;4.902;2023-02-26T05:47:20;8.90;;;1.95;;
20653;SDS011;21083;50.898;4.902;2023-02-26T05:49:47;9.15;;;1.80;;
20653;SDS011;21083;50.898;4.902;2023-02-26T05:52:14;11.97;;;1.90;;
20653;SDS011;21083;50.898;4.902;2023-02-26T05:54:41;7.70;;;2.03;;
20653;SDS011;21083;50.898;4.902;2023-02-26T05:57:08;8.93;;;1.83;;
20653;SDS011;21083;50.898;4.902;2023-02-26T05:59:35;7.95;;;2.15;;
20653;SDS011;21083;50.898;4.902;2023-02-26T06:02:03;11.27;;;2.03;;
20653;SDS011;21083;50.898;4.902;2023-02-26T06:04:31;7.82;;;1.73;;
20653;SDS011;21083;50.898;4.902;2023-02-26T06:06:58;8.82;;;1.67;;
20653;SDS011;21083;50.898;4.902;2023-02-26T06:09:25;4.95;;;1.63;;
20653;SDS011;21083;50.898;4.902;2023-02-26T06:11:52;12.02;;;1.90;;
20653;SDS011;21083;50.898;4.902;2023-02-26T06:14:19;12.98;;;2.00;;
20653;SDS011;21083;50.898;4.902;2023-02-26T06:16:46;6.55;;;1.67;;
20653;SDS011;21083;50.898;4.902;2023-02-26T06:19:13;6.85;;;1.88;;
20653;SDS011;21083;50.898;4.902;2023-02-26T06:21:41;6.38;;;1.65;;
20653;SDS011;21083;50.898;4.902;2023-02-26T06:24:08;9.02;;;1.95;;
20653;SDS011;21083;50.898;4.902;2023-02-26T06:26:35;5.60;;;1.67;;
20653;SDS011;21083;50.898;4.902;2023-02-26T06:29:01;8.93;;;1.85;;
20653;SDS011;21083;50.898;4.902;2023-02-26T06:31:28;5.07;;;1.60;;
20653;SDS011;21083;50.898;4.902;2023-02-26T06:33:55;8.55;;;2.60;;
20653;SDS011;21083;50.898;4.902;2023-02-26T06:36:22;11.05;;;1.90;;
20653;SDS011;21083;50.898;4.902;2023-02-26T06:38:50;8.60;;;1.88;;
20653;SDS011;21083;50.898;4.902;2023-02-26T06:41:17;14.10;;;2.03;;
20653;SDS011;21083;50.898;4.902;2023-02-26T06:43:44;9.45;;;1.90;;
20653;SDS011;21083;50.898;4.902;2023-02-26T06:46:11;13.40;;;3.08;;
20653;SDS011;21083;50.898;4.902;2023-02-26T06:48:38;13.27;;;2.00;;
20653;SDS011;21083;50.898;4.902;2023-02-26T06:51:05;4.20;;;1.70;;
20653;SDS011;21083;50.898;4.902;2023-02-26T06:53:31;12.55;;;1.83;;
20653;SDS011;21083;50.898;4.902;2023-02-26T06:56:00;9.45;;;2.00;;
20653;SDS011;21083;50.898;4.902;2023-02-26T06:58:27;9.20;;;1.92;;
20653;SDS011;21083;50.898;4.902;2023-02-26T07:00:54;7.10;;;1.98;;
20653;SDS011;21083;50.898;4.902;2023-02-26T07:03:21;7.80;;;2.42;;
20653;SDS011;21083;50.898;4.902;2023-02-26T07:05:48;10.10;;;3.28;;
20653;SDS011;21083;50.898;4.902;2023-02-26T07:08:15;8.68;;;2.30;;
20653;SDS011;21083;50.898;4.902;2023-02-26T07:10:42;7.93;;;2.15;;
20653;SDS011;21083;50.898;4.902;2023-02-26T07:13:11;11.13;;;2.15;;
20653;SDS011;21083;50.898;4.902;2023-02-26T07:15:38;8.82;;;1.88;;
20653;SDS011;21083;50.898;4.902;2023-02-26T07:18:05;13.02;;;2.60;;
20653;SDS011;21083;50.898;4.902;2023-02-26T07:20:33;11.95;;;2.10;;
20653;SDS011;21083;50.898;4.902;2023-02-26T07:23:00;9.02;;;1.80;;
20653;SDS011;21083;50.898;4.902;2023-02-26T07:25:27;9.15;;;1.90;;
20653;SDS011;21083;50.898;4.902;2023-02-26T07:27:54;7.05;;;2.03;;
20653;SDS011;21083;50.898;4.902;2023-02-26T07:30:23;17.27;;;2.40;;
20653;SDS011;21083;50.898;4.902;2023-02-26T07:32:50;9.03;;;1.90;;
20653;SDS011;21083;50.898;4.902;2023-02-26T07:35:17;12.27;;;2.28;;
20653;SDS011;21083;50.898;4.902;2023-02-26T07:37:44;4.32;;;1.33;;
20653;SDS011;21083;50.898;4.902;2023-02-26T07:40:12;12.70;;;2.10;;
20653;SDS011;21083;50.898;4.902;2023-02-26T07:42:39;9.65;;;1.80;;
20653;SDS011;21083;50.898;4.902;2023-02-26T07:45:07;13.98;;;2.08;;
20653;SDS011;21083;50.898;4.902;2023-02-26T07:47:35;9.73;;;1.65;;
20653;SDS011;21083;50.898;4.902;2023-02-26T07:50:03;7.32;;;1.67;;
20653;SDS011;21083;50.898;4.902;2023-02-26T07:52:30;7.65;;;1.95;;
20653;SDS011;21083;50.898;4.902;2023-02-26T07:54:57;8.88;;;1.77;;
20653;SDS011;21083;50.898;4.902;2023-02-26T07:57:24;5.95;;;1.70;;
20653;SDS011;21083;50.898;4.902;2023-02-26T07:59:51;5.53;;;1.73;;
20653;SDS011;21083;50.898;4.902;2023-02-26T08:02:18;8.68;;;2.03;;
20653;SDS011;21083;50.898;4.902;2023-02-26T08:04:48;13.50;;;1.70;;
20653;SDS011;21083;50.898;4.902;2023-02-26T08:07:16;8.63;;;1.67;;
20653;SDS011;21083;50.898;4.902;2023-02-26T08:09:42;7.25;;;1.30;;
20653;SDS011;21083;50.898;4.902;2023-02-26T08:12:09;7.47;;;1.70;;
20653;SDS011;21083;50.898;4.902;2023-02-26T08:14:36;13.05;;;1.60;;
20653;SDS011;21083;50.898;4.902;2023-02-26T08:17:05;7.93;;;1.73;;
20653;SDS011;21083;50.898;4.902;2023-02-26T08:19:32;11.13;;;1.90;;
20653;SDS011;21083;50.898;4.902;2023-02-26T08:22:01;11.38;;;1.80;;
20653;SDS011;21083;50.898;4.902;2023-02-26T08:24:28;7.60;;;1.63;;
20653;SDS011;21083;50.898;4.902;2023-02-26T08:26:54;8.73;;;1.75;;
20653;SDS011;21083;50.898;4.902;2023-02-26T08:29:21;14.02;;;1.63;;
20653;SDS011;21083;50.898;4.902;2023-02-26T08:31:49;5.03;;;1.20;;
20653;SDS011;21083;50.898;4.902;2023-02-26T08:34:16;6.97;;;1.60;;
20653;SDS011;21083;50.898;4.902;2023-02-26T08:36:43;12.35;;;1.40;;
20653;SDS011;21083;50.898;4.902;2023-02-26T08:39:12;7.45;;;1.65;;
20653;SDS011;21083;50.898;4.902;2023-02-26T08:41:39;6.05;;;1.58;;
20653;SDS011;21083;50.898;4.902;2023-02-26T08:44:06;10.05;;;1.63;;
20653;SDS011;21083;50.898;4.902;2023-02-26T08:46:33;8.43;;;1.58;;
20653;SDS011;21083;50.898;4.902;2023-02-26T08:49:01;8.50;;;1.52;;
20653;SDS011;21083;50.898;4.902;2023-02-26T08:51:28;7.13;;;1.48;;
20653;SDS011;21083;50.898;4.902;2023-02-26T08:53:55;10.13;;;2.30;;
20653;SDS011;21083;50.898;4.902;2023-02-26T08:56:23;5.10;;;1.60;;
20653;SDS011;21083;50.898;4.902;2023-02-26T08:58:50;10.43;;;2.00;;
20653;SDS011;21083;50.898;4.902;2023-02-26T09:01:17;7.00;;;1.87;;
20653;SDS011;21083;50.898;4.902;2023-02-26T09:03:44;7.43;;;1.80;;
20653;SDS011;21083;50.898;4.902;2023-02-26T09:06:11;5.38;;;1.38;;
20653;SDS011;21083;50.898;4.902;2023-02-26T09:08:39;4.30;;;1.25;;
20653;SDS011;21083;50.898;4.902;2023-02-26T09:11:06;8.48;;;1.58;;
20653;SDS011;21083;50.898;4.902;2023-02-26T09:13:35;6.65;;;1.30;;
20653;SDS011;21083;50.898;4.902;2023-02-26T09:16:02;11.25;;;1.63;;
20653;SDS011;21083;50.898;4.902;2023-02-26T09:18:30;9.30;;;1.80;;
20653;SDS011;21083;50.898;4.902;2023-02-26T09:20:57;7.18;;;1.45;;
20653;SDS011;21083;50.898;4.902;2023-02-26T09:23:24;7.20;;;1.13;;
20653;SDS011;21083;50.898;4.902;2023-02-26T09:25:51;6.53;;;1.50;;
20653;SDS011;21083;50.898;4.902;2023-02-26T09:28:19;5.22;;;1.67;;
20653;SDS011;21083;50.898;4.902;2023-02-26T09:30:49;4.10;;;1.50;;
20653;SDS011;21083;50.898;4.902;2023-02-26T09:33:17;11.55;;;1.63;;
20653;SDS011;21083;50.898;4.902;2023-02-26T09:35:46;12.32;;;1.35;;
20653;SDS011;21083;50.898;4.902;2023-02-26T09:38:13;5.05;;;1.08;;
20653;SDS011;21083;50.898;4.902;2023-02-26T09:40:41;5.88;;;1.23;;
20653;SDS011;21083;50.898;4.902;2023-02-26T09:43:20;4.25;;;1.38;;
20653;SDS011;21083;50.898;4.902;2023-02-26T09:46:18;8.95;;;1.20;;
20653;SDS011;21083;50.898;4.902;2023-02-26T09:48:52;5.65;;;0.90;;
20653;SDS011;21083;50.898;4.902;2023-02-26T09:51:28;5.47;;;1.20;;
20653;SDS011;21083;50.898;4.902;2023-02-26T09:53:58;6.75;;;1.65;;
20653;SDS011;21083;50.898;4.902;2023-02-26T09:56:28;5.40;;;1.10;;
20653;SDS011;21083;50.898;4.902;2023-02-26T09:59:01;5.72;;;1.17;;
20653;SDS011;21083;50.898;4.902;2023-02-26T10:01:32;8.35;;;1.23;;
20653;SDS011;21083;50.898;4.902;2023-02-26T10:04:10;5.32;;;1.08;;
20653;SDS011;21083;50.898;4.902;2023-02-26T10:06:45;4.55;;;1.08;;
20653;SDS011;21083;50.898;4.902;2023-02-26T10:09:22;6.97;;;1.08;;
20653;SDS011;21083;50.898;4.902;2023-02-26T10:11:59;3.75;;;0.93;;
20653;SDS011;21083;50.898;4.902;2023-02-26T10:14:31;8.07;;;1.70;;
20653;SDS011;21083;50.898;4.902;2023-02-26T10:17:04;7.53;;;1.10;;
20653;SDS011;21083;50.898;4.902;2023-02-26T10:19:39;1.38;;;0.90;;
20653;SDS011;21083;50.898;4.902;2023-02-26T10:22:12;4.07;;;0.90;;
20653;SDS011;21083;50.898;4.902;2023-02-26T10:24:45;7.75;;;1.02;;
20653;SDS011;21083;50.898;4.902;2023-02-26T10:27:14;3.58;;;1.10;;
20653;SDS011;21083;50.898;4.902;2023-02-26T10:29:47;4.55;;;1.08;;
20653;SDS011;21083;50.898;4.902;2023-02-26T10:32:27;7.82;;;1.30;;
20653;SDS011;21083;50.898;4.902;2023-02-26T10:35:01;6.80;;;1.02;;
20653;SDS011;21083;50.898;4.902;2023-02-26T10:37:35;1.60;;;0.70;;
20653;SDS011;21083;50.898;4.902;2023-02-26T10:40:10;7.45;;;1.63;;
20653;SDS011;21083;50.898;4.902;2023-02-26T10:42:42;5.07;;;1.00;;
20653;SDS011;21083;50.898;4.902;2023-02-26T10:45:16;5.57;;;0.90;;
20653;SDS011;21083;50.898;4.902;2023-02-26T10:47:59;4.68;;;1.05;;
20653;SDS011;21083;50.898;4.902;2023-02-26T10:50:36;5.32;;;1.15;;
20653;SDS011;21083;50.898;4.902;2023-02-26T10:53:07;5.25;;;1.20;;
20653;SDS011;21083;50.898;4.902;2023-02-26T10:55:38;3.83;;;0.90;;
20653;SDS011;21083;50.898;4.902;2023-02-26T10:58:10;7.53;;;0.98;;
20653;SDS011;21083;50.898;4.902;2023-02-26T11:00:40;6.38;;;0.93;;
20653;SDS011;21083;50.898;4.902;2023-02-26T11:03:12;5.50;;;1.58;;
20653;SDS011;21083;50.898;4.902;2023-02-26T11:05:42;5.75;;;0.75;;
20653;SDS011;21083;50.898;4.902;2023-02-26T11:08:12;5.72;;;0.95;;
20653;SDS011;21083;50.898;4.902;2023-02-26T11:10:44;6.25;;;1.40;;
20653;SDS011;21083;50.898;4.902;2023-02-26T11:13:15;4.95;;;0.93;;
20653;SDS011;21083;50.898;4.902;2023-02-26T11:15:43;3.10;;;0.82;;
20653;SDS011;21083;50.898;4.902;2023-02-26T11:18:16;3.38;;;0.77;;
20653;SDS011;21083;50.898;4.902;2023-02-26T11:20:46;5.90;;;0.73;;
20653;SDS011;21083;50.898;4.902;2023-02-26T11:23:15;3.40;;;0.90;;
20653;SDS011;21083;50.898;4.902;2023-02-26T11:25:45;2.88;;;0.70;;
20653;SDS011;21083;50.898;4.902;2023-02-26T11:28:18;3.78;;;0.85;;
20653;SDS011;21083;50.898;4.902;2023-02-26T11:30:48;2.83;;;0.75;;
20653;SDS011;21083;50.898;4.902;2023-02-26T11:33:22;3.03;;;0.50;;
20653;SDS011;21083;50.898;4.902;2023-02-26T11:35:54;2.80;;;0.68;;
20653;SDS011;21083;50.898;4.902;2023-02-26T11:38:26;3.15;;;0.63;;
20653;SDS011;21083;50.898;4.902;2023-02-26T11:40:54;2.72;;;0.73;;
20653;SDS011;21083;50.898;4.902;2023-02-26T11:43:23;2.42;;;0.80;;
20653;SDS011;21083;50.898;4.902;2023-02-26T11:45:53;4.30;;;0.70;;
20653;SDS011;21083;50.898;4.902;2023-02-26T11:48:25;2.47;;;0.90;;
20653;SDS011;21083;50.898;4.902;2023-02-26T11:51:04;2.90;;;0.63;;
20653;SDS011;21083;50.898;4.902;2023-02-26T11:53:34;3.50;;;1.02;;
20653;SDS011;21083;50.898;4.902;2023-02-26T11:56:02;3.67;;;1.15;;
20653;SDS011;21083;50.898;4.902;2023-02-26T11:58:35;6.18;;;2.28;;
20653;SDS011;21083;50.898;4.902;2023-02-26T12:01:05;4.93;;;1.98;;
20653;SDS011;21083;50.898;4.902;2023-02-26T12:03:35;2.15;;;0.82;;
20653;SDS011;21083;50.898;4.902;2023-02-26T12:06:05;2.75;;;1.00;;
20653;SDS011;21083;50.898;4.902;2023-02-26T12:08:36;6.80;;;0.93;;
20653;SDS011;21083;50.898;4.902;2023-02-26T12:11:07;3.58;;;0.90;;
20653;SDS011;21083;50.898;4.902;2023-02-26T12:13:46;6.90;;;0.77;;
20653;SDS011;21083;50.898;4.902;2023-02-26T12:16:24;8.52;;;1.00;;
20653;SDS011;21083;50.898;4.902;2023-02-26T12:19:02;4.70;;;0.80;;
20653;SDS011;21083;50.898;4.902;2023-02-26T12:21:44;3.65;;;1.02;;
20653;SDS011;21083;50.898;4.902;2023-02-26T12:27:32;3.78;;;0.98;;
20653;SDS011;21083;50.898;4.902;2023-02-26T12:30:19;3.65;;;0.55;;
20653;SDS011;21083;50.898;4.902;2023-02-26T12:32:57;2.67;;;0.90;;
20653;SDS011;21083;50.898;4.902;2023-02-26T12:35:39;1.92;;;0.60;;
20653;SDS011;21083;50.898;4.902;2023-02-26T12:38:15;3.78;;;0.90;;
20653;SDS011;21083;50.898;4.902;2023-02-26T12:41:04;3.63;;;0.80;;
20653;SDS011;21083;50.898;4.902;2023-02-26T12:43:48;5.53;;;0.70;;
20653;SDS011;21083;50.898;4.902;2023-02-26T12:49:18;3.03;;;0.93;;
20653;SDS011;21083;50.898;4.902;2023-02-26T12:52:02;1.83;;;0.50;;
20653;SDS011;21083;50.898;4.902;2023-02-26T12:54:49;2.53;;;0.80;;
20653;SDS011;21083;50.898;4.902;2023-02-26T12:57:42;2.63;;;0.60;;
20653;SDS011;21083;50.898;4.902;2023-02-26T13:00:21;2.25;;;0.60;;
20653;SDS011;21083;50.898;4.902;2023-02-26T13:06:38;4.57;;;1.10;;
20653;SDS011;21083;50.898;4.902;2023-02-26T13:09:33;4.03;;;0.73;;
20653;SDS011;21083;50.898;4.902;2023-02-26T13:12:14;4.15;;;1.42;;
20653;SDS011;21083;50.898;4.902;2023-02-26T13:14:51;4.22;;;0.95;;
20653;SDS011;21083;50.898;4.902;2023-02-26T13:17:32;2.35;;;0.60;;
20653;SDS011;21083;50.898;4.902;2023-02-26T13:20:09;2.83;;;0.70;;
20653;SDS011;21083;50.898;4.902;2023-02-26T13:22:40;9.70;;;1.40;;
20653;SDS011;21083;50.898;4.902;2023-02-26T13:25:15;6.72;;;1.00;;
20653;SDS011;21083;50.898;4.902;2023-02-26T13:27:47;4.45;;;0.80;;
20653;SDS011;21083;50.898;4.902;2023-02-26T13:30:19;2.47;;;0.63;;
20653;SDS011;21083;50.898;4.902;2023-02-26T13:32:50;5.50;;;0.85;;
20653;SDS011;21083;50.898;4.902;2023-02-26T13:35:20;3.17;;;0.70;;
20653;SDS011;21083;50.898;4.902;2023-02-26T13:37:53;3.13;;;1.00;;
20653;SDS011;21083;50.898;4.902;2023-02-26T13:40:31;5.05;;;0.70;;
20653;SDS011;21083;50.898;4.902;2023-02-26T13:43:09;3.83;;;0.77;;
20653;SDS011;21083;50.898;4.902;2023-02-26T13:45:46;3.40;;;0.68;;
20653;SDS011;21083;50.898;4.902;2023-02-26T13:48:24;6.82;;;1.00;;
20653;SDS011;21083;50.898;4.902;2023-02-26T13:50:59;4.53;;;1.02;;
20653;SDS011;21083;50.898;4.902;2023-02-26T13:53:35;2.83;;;0.80;;
20653;SDS011;21083;50.898;4.902;2023-02-26T13:56:19;4.68;;;0.90;;
20653;SDS011;21083;50.898;4.902;2023-02-26T13:58:50;3.70;;;0.80;;
20653;SDS011;21083;50.898;4.902;2023-02-26T14:01:25;12.02;;;1.38;;
20653;SDS011;21083;50.898;4.902;2023-02-26T14:04:05;4.95;;;0.85;;
20653;SDS011;21083;50.898;4.902;2023-02-26T14:06:38;4.32;;;0.77;;
20653;SDS011;21083;50.898;4.902;2023-02-26T14:12:23;3.17;;;0.65;;
20653;SDS011;21083;50.898;4.902;2023-02-26T14:17:47;3.03;;;0.52;;
20653;SDS011;21083;50.898;4.902;2023-02-26T14:20:20;6.38;;;1.02;;
20653;SDS011;21083;50.898;4.902;2023-02-26T14:22:56;4.45;;;1.13;;
20653;SDS011;21083;50.898;4.902;2023-02-26T14:25:38;4.72;;;0.73;;
20653;SDS011;21083;50.898;4.902;2023-02-26T14:28:18;4.57;;;1.00;;
20653;SDS011;21083;50.898;4.902;2023-02-26T14:31:04;3.75;;;0.70;;
20653;SDS011;21083;50.898;4.902;2023-02-26T14:33:38;3.22;;;0.68;;
20653;SDS011;21083;50.898;4.902;2023-02-26T14:36:10;6.90;;;0.88;;
20653;SDS011;21083;50.898;4.902;2023-02-26T14:38:42;4.40;;;0.65;;
20653;SDS011;21083;50.898;4.902;2023-02-26T14:41:12;9.98;;;1.40;;
20653;SDS011;21083;50.898;4.902;2023-02-26T14:43:52;5.40;;;0.88;;
20653;SDS011;21083;50.898;4.902;2023-02-26T14:46:25;3.90;;;0.90;;
20653;SDS011;21083;50.898;4.902;2023-02-26T14:48:52;3.15;;;0.70;;
20653;SDS011;21083;50.898;4.902;2023-02-26T14:51:21;2.70;;;0.80;;
20653;SDS011;21083;50.898;4.902;2023-02-26T14:54:03;5.88;;;1.08;;
20653;SDS011;21083;50.898;4.902;2023-02-26T14:56:44;2.72;;;0.65;;
20653;SDS011;21083;50.898;4.902;2023-02-26T14:59:24;3.78;;;0.68;;
20653;SDS011;21083;50.898;4.902;2023-02-26T15:02:17;5.80;;;1.02;;
20653;SDS011;21083;50.898;4.902;2023-02-26T15:04:54;1.48;;;0.57;;
20653;SDS011;21083;50.898;4.902;2023-02-26T15:10:48;8.57;;;1.08;;
20653;SDS011;21083;50.898;4.902;2023-02-26T15:13:34;5.95;;;1.10;;
20653;SDS011;21083;50.898;4.902;2023-02-26T15:16:17;3.95;;;0.80;;
20653;SDS011;21083;50.898;4.902;2023-02-26T15:18:57;4.28;;;0.98;;
20653;SDS011;21083;50.898;4.902;2023-02-26T15:21:33;6.20;;;1.00;;
20653;SDS011;21083;50.898;4.902;2023-02-26T15:24:08;4.20;;;0.98;;
20653;SDS011;21083;50.898;4.902;2023-02-26T15:26:39;5.60;;;0.75;;
20653;SDS011;21083;50.898;4.902;2023-02-26T15:29:12;6.43;;;0.90;;
20653;SDS011;21083;50.898;4.902;2023-02-26T15:31:43;1.15;;;0.50;;